sensor_id;sensor_type;location;lat;lon;timestamp;pressure;altitude;pressure_sealevel;temperature;humidity
4830;BME280;2429;52.586;14.322;2024-03-17T00:03:54;102029.44;;;5.18;100.00
4830;BME280;2429;52.586;14.322;2024-03-17T00:08:56;102033.25;;;4.83;100.00
4830;BME280;2429;52.586;14.322;2024-03-17T00:14:00;102041.00;;;4.87;100.00
4830;BME280;2429;52.586;14.322;2024-03-17T00:19:02;102036.53;;;5.05;100.00
4830;BME280;2429;52.586;14.322;2024-03-17T00:24:04;102039.78;;;5.21;100.00
4830;BME280;2429;52.586;14.322;2024-03-17T00:29:08;102046.53;;;5.37;100.00
4830;BME280;2429;52.586;14.322;2024-03-17T00:34:10;102050.19;;;5.21;100.00
4830;BME280;2429;52.586;14.322;2024-03-17T00:39:12;102049.19;;;5.33;100.00
4830;BME280;2429;52.586;14.322;2024-03-17T00:44:17;102054.41;;;5.33;100.00
4830;BME280;2429;52.586;14.322;2024-03-17T00:49:19;102059.47;;;5.45;100.00
4830;BME280;2429;52.586;14.322;2024-03-17T00:54:22;102054.50;;;5.25;100.00
4830;BME280;2429;52.586;14.322;2024-03-17T00:59:25;102061.59;;;5.06;100.00
4830;BME280;2429;52.586;14.322;2024-03-17T01:04:27;102059.97;;;4.99;100.00
4830;BME280;2429;52.586;14.322;2024-03-17T01:09:30;102070.06;;;5.26;100.00
4830;BME280;2429;52.586;14.322;2024-03-17T01:14:33;102067.50;;;5.23;100.00
4830;BME280;2429;52.586;14.322;2024-03-17T01:19:36;102071.03;;;5.16;100.00
4830;BME280;2429;52.586;14.322;2024-03-17T01:24:38;102061.66;;;5.01;100.00
4830;BME280;2429;52.586;14.322;2024-03-17T01:29:45;102052.84;;;5.16;100.00
4830;BME280;2429;52.586;14.322;2024-03-17T01:34:47;102051.00;;;5.29;100.00
4830;BME280;2429;52.586;14.322;2024-03-17T01:39:49;102049.22;;;5.31;100.00
4830;BME280;2429;52.586;14.322;2024-03-17T01:44:53;102045.78;;;5.29;100.00
4830;BME280;2429;52.586;14.322;2024-03-17T01:49:55;102050.13;;;5.25;100.00
4830;BME280;2429;52.586;14.322;2024-03-17T01:54:57;102051.69;;;5.45;100.00
4830;BME280;2429;52.586;14.322;2024-03-17T02:00:01;102041.34;;;5.37;100.00
4830;BME280;2429;52.586;14.322;2024-03-17T02:05:06;102040.03;;;4.98;100.00
4830;BME280;2429;52.586;14.322;2024-03-17T02:10:09;102039.88;;;5.15;100.00
4830;BME280;2429;52.586;14.322;2024-03-17T02:15:14;102042.31;;;5.32;100.00
4830;BME280;2429;52.586;14.322;2024-03-17T02:20:17;102050.31;;;5.08;100.00
4830;BME280;2429;52.586;14.322;2024-03-17T02:25:20;102040.88;;;5.00;100.00
4830;BME280;2429;52.586;14.322;2024-03-17T02:30:23;102037.41;;;5.01;100.00
4830;BME280;2429;52.586;14.322;2024-03-17T02:35:25;102037.38;;;5.05;100.00
4830;BME280;2429;52.586;14.322;2024-03-17T02:40:29;102050.47;;;4.94;100.00
4830;BME280;2429;52.586;14.322;2024-03-17T02:45:31;102058.06;;;5.13;100.00
4830;BME280;2429;52.586;14.322;2024-03-17T02:50:33;102059.94;;;5.02;100.00
4830;BME280;2429;52.586;14.322;2024-03-17T02:55:37;102060.47;;;5.33;100.00
4830;BME280;2429;52.586;14.322;2024-03-17T03:00:39;102064.91;;;5.23;100.00
4830;BME280;2429;52.586;14.322;2024-03-17T03:05:42;102067.47;;;5.26;100.00
4830;BME280;2429;52.586;14.322;2024-03-17T03:10:45;102057.75;;;5.44;100.00
4830;BME280;2429;52.586;14.322;2024-03-17T03:15:47;102061.66;;;5.01;100.00
4830;BME280;2429;52.586;14.322;2024-03-17T03:20:50;102060.06;;;4.85;100.00
4830;BME280;2429;52.586;14.322;2024-03-17T03:25:58;102059.13;;;4.93;100.00
4830;BME280;2429;52.586;14.322;2024-03-17T03:31:00;102056.41;;;5.06;100.00
4830;BME280;2429;52.586;14.322;2024-03-17T03:36:08;102062.72;;;4.77;100.00
4830;BME280;2429;52.586;14.322;2024-03-17T03:41:14;102053.97;;;4.89;100.00
4830;BME280;2429;52.586;14.322;2024-03-17T03:46:17;102056.47;;;4.98;100.00
4830;BME280;2429;52.586;14.322;2024-03-17T03:51:19;102054.59;;;5.16;100.00
4830;BME280;2429;52.586;14.322;2024-03-17T03:56:23;102052.06;;;5.08;100.00
4830;BME280;2429;52.586;14.322;2024-03-17T04:01:26;102061.72;;;4.95;100.00
4830;BME280;2429;52.586;14.322;2024-03-17T04:06:28;102064.34;;;4.90;100.00
4830;BME280;2429;52.586;14.322;2024-03-17T04:11:33;102060.94;;;4.87;100.00
4830;BME280;2429;52.586;14.322;2024-03-17T04:16:35;102057.44;;;4.89;100.00
4830;BME280;2429;52.586;14.322;2024-03-17T04:21:37;102066.09;;;4.91;100.00
4830;BME280;2429;52.586;14.322;2024-03-17T04:26:41;102065.13;;;5.03;100.00
4830;BME280;2429;52.586;14.322;2024-03-17T04:31:44;102064.13;;;5.15;100.00
4830;BME280;2429;52.586;14.322;2024-03-17T04:36:49;102063.50;;;4.91;100.00
4830;BME280;2429;52.586;14.322;2024-03-17T04:41:53;102070.56;;;4.72;100.00
4830;BME280;2429;52.586;14.322;2024-03-17T04:46:55;102081.00;;;4.66;100.00
4830;BME280;2429;52.586;14.322;2024-03-17T04:51:57;102078.47;;;4.57;100.00
4830;BME280;2429;52.586;14.322;2024-03-17T04:57:01;102081.88;;;4.64;100.00
4830;BME280;2429;52.586;14.322;2024-03-17T05:02:03;102088.03;;;4.52;100.00
4830;BME280;2429;52.586;14.322;2024-03-17T05:07:05;102104.47;;;4.48;100.00
4830;BME280;2429;52.586;14.322;2024-03-17T05:12:09;102107.13;;;4.41;100.00
4830;BME280;2429;52.586;14.322;2024-03-17T05:17:11;102113.31;;;4.16;100.00
4830;BME280;2429;52.586;14.322;2024-03-17T05:22:13;102113.31;;;4.20;100.00
4830;BME280;2429;52.586;14.322;2024-03-17T05:27:17;102112.41;;;4.28;100.00
4830;BME280;2429;52.586;14.322;2024-03-17T05:32:19;102113.31;;;4.16;100.00
4830;BME280;2429;52.586;14.322;2024-03-17T05:37:22;102127.25;;;3.95;100.00
4830;BME280;2429;52.586;14.322;2024-03-17T05:42:25;102137.44;;;4.39;100.00
4830;BME280;2429;52.586;14.322;2024-03-17T05:47:28;102143.44;;;4.45;100.00
4830;BME280;2429;52.586;14.322;2024-03-17T05:52:31;102145.16;;;4.47;100.00
4830;BME280;2429;52.586;14.322;2024-03-17T05:57:34;102153.75;;;4.62;100.00
4830;BME280;2429;52.586;14.322;2024-03-17T06:02:37;102161.56;;;4.51;100.00
4830;BME280;2429;52.586;14.322;2024-03-17T06:07:39;102177.09;;;4.65;100.00
4830;BME280;2429;52.586;14.322;2024-03-17T06:12:42;102170.94;;;4.78;100.00
4830;BME280;2429;52.586;14.322;2024-03-17T06:17:44;102162.19;;;4.91;100.00
4830;BME280;2429;52.586;14.322;2024-03-17T06:22:47;102175.28;;;4.73;100.00
4830;BME280;2429;52.586;14.322;2024-03-17T06:27:50;102174.41;;;4.77;100.00
4830;BME280;2429;52.586;14.322;2024-03-17T06:32:52;102182.22;;;4.72;100.00
4830;BME280;2429;52.586;14.322;2024-03-17T06:37:54;102183.09;;;4.68;100.00
4830;BME280;2429;52.586;14.322;2024-03-17T06:42:58;102181.19;;;4.95;100.00
4830;BME280;2429;52.586;14.322;2024-03-17T06:48:00;102182.78;;;5.13;100.00
4830;BME280;2429;52.586;14.322;2024-03-17T06:53:03;102183.69;;;5.07;100.00
4830;BME280;2429;52.586;14.322;2024-03-17T06:58:06;102198.13;;;5.45;100.00
4830;BME280;2429;52.586;14.322;2024-03-17T07:03:09;102190.47;;;5.28;100.00
4830;BME280;2429;52.586;14.322;2024-03-17T07:08:11;102193.94;;;5.29;100.00
4830;BME280;2429;52.586;14.322;2024-03-17T07:13:16;102193.63;;;5.63;100.00
4830;BME280;2429;52.586;14.322;2024-03-17T07:18:18;102198.47;;;5.98;100.00
4830;BME280;2429;52.586;14.322;2024-03-17T07:23:21;102209.72;;;6.02;100.00
4830;BME280;2429;52.586;14.322;2024-03-17T07:28:25;102208.84;;;6.02;100.00
4830;BME280;2429;52.586;14.322;2024-03-17T07:33:28;102214.06;;;5.95;100.00
4830;BME280;2429;52.586;14.322;2024-03-17T07:38:31;102215.16;;;6.52;100.00
4830;BME280;2429;52.586;14.322;2024-03-17T07:43:38;102227.31;;;6.53;100.00
4830;BME280;2429;52.586;14.322;2024-03-17T07:48:42;102229.31;;;6.32;100.00
4830;BME280;2429;52.586;14.322;2024-03-17T07:53:45;102230.94;;;6.41;100.00
4830;BME280;2429;52.586;14.322;2024-03-17T07:58:49;102233.06;;;6.08;100.00
4830;BME280;2429;52.586;14.322;2024-03-17T08:03:52;102243.22;;;6.28;100.00
4830;BME280;2429;52.586;14.322;2024-03-17T08:08:57;102237.53;;;6.67;100.00
4830;BME280;2429;52.586;14.322;2024-03-17T08:14:00;102243.31;;;6.89;100.00
4830;BME280;2429;52.586;14.322;2024-03-17T08:19:04;102251.06;;;6.27;100.00
4830;BME280;2429;52.586;14.322;2024-03-17T08:24:07;102252.00;;;6.21;100.00
4830;BME280;2429;52.586;14.322;2024-03-17T08:29:11;102254.28;;;6.47;100.00
4830;BME280;2429;52.586;14.322;2024-03-17T08:34:13;102251.19;;;6.86;100.00
4830;BME280;2429;52.586;14.322;2024-03-17T08:39:16;102248.16;;;7.15;100.00
4830;BME280;2429;52.586;14.322;2024-03-17T08:44:19;102258.69;;;7.06;100.00
4830;BME280;2429;52.586;14.322;2024-03-17T08:49:21;102261.34;;;7.03;100.00
4830;BME280;2429;52.586;14.322;2024-03-17T08:54:24;102259.81;;;6.88;100.00
4830;BME280;2429;52.586;14.322;2024-03-17T08:59:27;102263.59;;;6.65;100.00
4830;BME280;2429;52.586;14.322;2024-03-17T09:04:31;102266.97;;;7.33;100.00
4830;BME280;2429;52.586;14.322;2024-03-17T09:09:33;102263.00;;;7.09;100.00
4830;BME280;2429;52.586;14.322;2024-03-17T09:14:36;102271.91;;;6.94;100.00
4830;BME280;2429;52.586;14.322;2024-03-17T09:19:39;102280.63;;;6.93;100.00
4830;BME280;2429;52.586;14.322;2024-03-17T09:24:42;102276.25;;;6.95;100.00
4830;BME280;2429;52.586;14.322;2024-03-17T09:29:46;102281.34;;;7.02;100.00
4830;BME280;2429;52.586;14.322;2024-03-17T09:34:49;102288.69;;;6.73;100.00
4830;BME280;2429;52.586;14.322;2024-03-17T09:39:52;102288.00;;;6.58;100.00
4830;BME280;2429;52.586;14.322;2024-03-17T09:44:58;102291.50;;;6.57;100.00
4830;BME280;2429;52.586;14.322;2024-03-17T09:50:02;102287.81;;;6.75;100.00
4830;BME280;2429;52.586;14.322;2024-03-17T09:55:09;102290.50;;;6.69;100.00
4830;BME280;2429;52.586;14.322;2024-03-17T10:00:14;102292.41;;;6.55;100.00
4830;BME280;2429;52.586;14.322;2024-03-17T10:05:21;102278.38;;;7.29;100.00
4830;BME280;2429;52.586;14.322;2024-03-17T10:10:23;102276.91;;;8.12;100.00
4830;BME280;2429;52.586;14.322;2024-03-17T10:15:27;102280.72;;;7.94;100.00
4830;BME280;2429;52.586;14.322;2024-03-17T10:20:30;102278.69;;;8.10;100.00
4830;BME280;2429;52.586;14.322;2024-03-17T10:25:34;102285.50;;;8.19;100.00
4830;BME280;2429;52.586;14.322;2024-03-17T10:30:39;102277.59;;;7.76;100.00
4830;BME280;2429;52.586;14.322;2024-03-17T10:35:42;102284.00;;;7.57;100.00
4830;BME280;2429;52.586;14.322;2024-03-17T10:40:44;102286.34;;;7.72;100.00
4830;BME280;2429;52.586;14.322;2024-03-17T10:45:48;102286.22;;;7.79;100.00
4830;BME280;2429;52.586;14.322;2024-03-17T10:50:52;102286.41;;;7.69;100.00
4830;BME280;2429;52.586;14.322;2024-03-17T10:56:04;102281.00;;;7.79;100.00
4830;BME280;2429;52.586;14.322;2024-03-17T11:01:11;102282.19;;;8.56;100.00
4830;BME280;2429;52.586;14.322;2024-03-17T11:06:15;102290.41;;;9.18;99.11
4830;BME280;2429;52.586;14.322;2024-03-17T11:11:35;102299.63;;;8.96;100.00
4830;BME280;2429;52.586;14.322;2024-03-17T11:16:39;102296.53;;;8.35;100.00
4830;BME280;2429;52.586;14.322;2024-03-17T11:21:41;102297.94;;;8.53;100.00
4830;BME280;2429;52.586;14.322;2024-03-17T11:26:43;102293.47;;;8.98;100.00
4830;BME280;2429;52.586;14.322;2024-03-17T11:31:47;102294.13;;;9.08;90.25
4830;BME280;2429;52.586;14.322;2024-03-17T11:36:54;102297.69;;;8.65;95.49
4830;BME280;2429;52.586;14.322;2024-03-17T11:42:04;102295.81;;;8.70;96.18
4830;BME280;2429;52.586;14.322;2024-03-17T11:47:12;102287.94;;;8.73;99.18
4830;BME280;2429;52.586;14.322;2024-03-17T11:52:16;102296.13;;;8.55;95.69
4830;BME280;2429;52.586;14.322;2024-03-17T11:57:20;102291.03;;;8.03;97.05
4830;BME280;2429;52.586;14.322;2024-03-17T12:02:26;102304.44;;;7.82;100.00
4830;BME280;2429;52.586;14.322;2024-03-17T12:07:28;102289.91;;;8.17;98.63
4830;BME280;2429;52.586;14.322;2024-03-17T12:12:31;102295.72;;;8.29;100.00
4830;BME280;2429;52.586;14.322;2024-03-17T12:17:37;102294.44;;;8.07;100.00
4830;BME280;2429;52.586;14.322;2024-03-17T12:22:39;102280.63;;;8.00;99.72
4830;BME280;2429;52.586;14.322;2024-03-17T12:27:44;102281.63;;;7.93;100.00
4830;BME280;2429;52.586;14.322;2024-03-17T12:32:48;102288.56;;;7.94;100.00
4830;BME280;2429;52.586;14.322;2024-03-17T12:37:51;102286.75;;;7.99;100.00
4830;BME280;2429;52.586;14.322;2024-03-17T12:42:53;102275.56;;;7.91;100.00
4830;BME280;2429;52.586;14.322;2024-03-17T12:47:57;102276.00;;;7.66;100.00
4830;BME280;2429;52.586;14.322;2024-03-17T12:52:59;102274.31;;;7.64;100.00
4830;BME280;2429;52.586;14.322;2024-03-17T12:58:08;102276.59;;;7.84;100.00
4830;BME280;2429;52.586;14.322;2024-03-17T13:03:31;102267.72;;;7.91;100.00
4830;BME280;2429;52.586;14.322;2024-03-17T13:08:35;102258.78;;;8.04;100.00
4830;BME280;2429;52.586;14.322;2024-03-17T13:13:37;102258.72;;;8.07;98.90
4830;BME280;2429;52.586;14.322;2024-03-17T13:18:41;102263.03;;;7.63;98.09
4830;BME280;2429;52.586;14.322;2024-03-17T13:23:43;102268.72;;;7.85;96.60
4830;BME280;2429;52.586;14.322;2024-03-17T13:28:45;102270.50;;;7.83;99.22
4830;BME280;2429;52.586;14.322;2024-03-17T13:33:49;102270.50;;;7.83;100.00
4830;BME280;2429;52.586;14.322;2024-03-17T13:38:52;102267.44;;;7.58;100.00
4830;BME280;2429;52.586;14.322;2024-03-17T13:43:54;102271.47;;;7.76;100.00
4830;BME280;2429;52.586;14.322;2024-03-17T13:49:06;102265.56;;;7.66;100.00
4830;BME280;2429;52.586;14.322;2024-03-17T13:54:09;102260.94;;;7.81;100.00
4830;BME280;2429;52.586;14.322;2024-03-17T13:59:11;102263.63;;;7.77;100.00
4830;BME280;2429;52.586;14.322;2024-03-17T14:04:15;102258.91;;;7.50;100.00
4830;BME280;2429;52.586;14.322;2024-03-17T14:09:17;102251.09;;;7.48;100.00
4830;BME280;2429;52.586;14.322;2024-03-17T14:14:20;102250.28;;;7.45;100.00
4830;BME280;2429;52.586;14.322;2024-03-17T14:19:23;102252.91;;;7.43;100.00
4830;BME280;2429;52.586;14.322;2024-03-17T14:24:25;102253.59;;;7.54;100.00
4830;BME280;2429;52.586;14.322;2024-03-17T14:29:28;102252.03;;;7.44;98.11
4830;BME280;2429;52.586;14.322;2024-03-17T14:34:31;102247.41;;;7.62;100.00
4830;BME280;2429;52.586;14.322;2024-03-17T14:39:35;102249.22;;;7.56;99.93
4830;BME280;2429;52.586;14.322;2024-03-17T14:44:39;102250.78;;;7.67;100.00
4830;BME280;2429;52.586;14.322;2024-03-17T14:49:42;102249.00;;;7.67;99.95
4830;BME280;2429;52.586;14.322;2024-03-17T14:54:46;102241.56;;;7.46;100.00
4830;BME280;2429;52.586;14.322;2024-03-17T14:59:48;102253.16;;;7.28;96.25
4830;BME280;2429;52.586;14.322;2024-03-17T15:04:52;102260.13;;;7.29;100.00
4830;BME280;2429;52.586;14.322;2024-03-17T15:09:54;102248.53;;;7.45;100.00
4830;BME280;2429;52.586;14.322;2024-03-17T15:14:56;102249.66;;;7.30;97.75
4830;BME280;2429;52.586;14.322;2024-03-17T15:20:00;102255.56;;;7.40;100.00
4830;BME280;2429;52.586;14.322;2024-03-17T15:25:03;102256.72;;;7.22;100.00
4830;BME280;2429;52.586;14.322;2024-03-17T15:30:07;102257.00;;;7.03;100.00
4830;BME280;2429;52.586;14.322;2024-03-17T15:35:11;102258.78;;;7.00;100.00
4830;BME280;2429;52.586;14.322;2024-03-17T15:40:14;102259.91;;;6.82;100.00
4830;BME280;2429;52.586;14.322;2024-03-17T15:45:18;102256.41;;;6.84;100.00
4830;BME280;2429;52.586;14.322;2024-03-17T15:50:23;102254.13;;;6.60;100.00
4830;BME280;2429;52.586;14.322;2024-03-17T15:55:26;102254.13;;;6.63;100.00
4830;BME280;2429;52.586;14.322;2024-03-17T16:00:28;102253.50;;;6.41;100.00
4830;BME280;2429;52.586;14.322;2024-03-17T16:05:32;102257.59;;;6.62;100.00
4830;BME280;2429;52.586;14.322;2024-03-17T16:10:35;102266.47;;;6.45;100.00
4830;BME280;2429;52.586;14.322;2024-03-17T16:15:38;102262.34;;;6.27;100.00
4830;BME280;2429;52.586;14.322;2024-03-17T16:20:59;102264.13;;;6.22;100.00
4830;BME280;2429;52.586;14.322;2024-03-17T16:26:02;102287.88;;;5.85;100.00
4830;BME280;2429;52.586;14.322;2024-03-17T16:31:05;102293.41;;;5.51;100.00
4830;BME280;2429;52.586;14.322;2024-03-17T16:36:09;102285.50;;;5.63;100.00
4830;BME280;2429;52.586;14.322;2024-03-17T16:41:11;102288.09;;;5.62;100.00
4830;BME280;2429;52.586;14.322;2024-03-17T16:46:36;102300.22;;;5.64;100.00
4830;BME280;2429;52.586;14.322;2024-03-17T16:51:43;102301.25;;;5.46;100.00
4830;BME280;2429;52.586;14.322;2024-03-17T16:56:46;102303.91;;;5.33;100.00
4830;BME280;2429;52.586;14.322;2024-03-17T17:01:48;102306.72;;;4.95;100.00
4830;BME280;2429;52.586;14.322;2024-03-17T17:06:52;102296.34;;;4.95;100.00
4830;BME280;2429;52.586;14.322;2024-03-17T17:11:54;102306.69;;;5.08;100.00
4830;BME280;2429;52.586;14.322;2024-03-17T17:16:56;102302.31;;;5.15;100.00
4830;BME280;2429;52.586;14.322;2024-03-17T17:22:02;102305.03;;;4.96;100.00
4830;BME280;2429;52.586;14.322;2024-03-17T17:27:05;102312.84;;;4.91;100.00
4830;BME280;2429;52.586;14.322;2024-03-17T17:32:10;102311.16;;;4.81;100.00
4830;BME280;2429;52.586;14.322;2024-03-17T17:37:13;102319.00;;;4.73;100.00
4830;BME280;2429;52.586;14.322;2024-03-17T17:42:17;102312.94;;;4.70;100.00
4830;BME280;2429;52.586;14.322;2024-03-17T21:08:48;102382.31;;;1.95;100.00
4830;BME280;2429;52.586;14.322;2024-03-17T21:13:50;102383.69;;;1.56;100.00
4830;BME280;2429;52.586;14.322;2024-03-17T21:18:53;102381.00;;;1.45;100.00
4830;BME280;2429;52.586;14.322;2024-03-17T21:23:56;102381.78;;;1.38;100.00
4830;BME280;2429;52.586;14.322;2024-03-17T21:28:59;102380.03;;;1.35;100.00
4830;BME280;2429;52.586;14.322;2024-03-17T21:34:02;102386.97;;;1.39;100.00
4830;BME280;2429;52.586;14.322;2024-03-17T21:39:05;102385.28;;;1.45;100.00
4830;BME280;2429;52.586;14.322;2024-03-17T21:44:08;102386.94;;;1.38;100.00
4830;BME280;2429;52.586;14.322;2024-03-17T21:49:11;102389.41;;;1.26;100.00
4830;BME280;2429;52.586;14.322;2024-03-17T21:54:14;102392.16;;;1.44;100.00
4830;BME280;2429;52.586;14.322;2024-03-17T21:59:16;102385.03;;;1.21;100.00
4830;BME280;2429;52.586;14.322;2024-03-17T22:04:19;102378.09;;;1.17;100.00
4830;BME280;2429;52.586;14.322;2024-03-17T22:09:22;102374.47;;;1.01;100.00
4830;BME280;2429;52.586;14.322;2024-03-17T22:14:25;102371.03;;;1.02;100.00
4830;BME280;2429;52.586;14.322;2024-03-17T22:19:27;102372.72;;;0.97;100.00
4830;BME280;2429;52.586;14.322;2024-03-17T22:24:33;102369.22;;;0.94;100.00
4830;BME280;2429;52.586;14.322;2024-03-17T22:29:37;102363.09;;;0.85;100.00
4830;BME280;2429;52.586;14.322;2024-03-17T22:34:39;102365.66;;;0.82;100.00
4830;BME280;2429;52.586;14.322;2024-03-17T22:39:42;102361.25;;;0.74;100.00
4830;BME280;2429;52.586;14.322;2024-03-17T22:44:45;102360.59;;;0.90;100.00
4830;BME280;2429;52.586;14.322;2024-03-17T22:49:49;102357.00;;;0.79;100.00
4830;BME280;2429;52.586;14.322;2024-03-17T22:54:54;102355.22;;;0.75;100.00
4830;BME280;2429;52.586;14.322;2024-03-17T22:59:56;102357.19;;;0.93;100.00
4830;BME280;2429;52.586;14.322;2024-03-17T23:04:59;102359.34;;;0.60;100.00
4830;BME280;2429;52.586;14.322;2024-03-17T23:10:03;102357.50;;;0.53;100.00
4830;BME280;2429;52.586;14.322;2024-03-17T23:15:06;102357.88;;;0.79;100.00
4830;BME280;2429;52.586;14.322;2024-03-17T23:20:09;102343.97;;;0.68;100.00
4830;BME280;2429;52.586;14.322;2024-03-17T23:25:14;102338.72;;;0.62;100.00
4830;BME280;2429;52.586;14.322;2024-03-17T23:30:17;102341.28;;;0.60;100.00
4830;BME280;2429;52.586;14.322;2024-03-17T23:35:20;102342.72;;;0.40;100.00
4830;BME280;2429;52.586;14.322;2024-03-17T23:40:24;102339.66;;;0.07;100.00
4830;BME280;2429;52.586;14.322;2024-03-17T23:45:28;102333.72;;;0.13;100.00
4830;BME280;2429;52.586;14.322;2024-03-17T23:50:30;102321.94;;;0.29;100.00
4830;BME280;2429;52.586;14.322;2024-03-17T23:55:34;102322.41;;;0.00;100.00
